Time;durP1;ratioP1;P1;durP2;ratioP2;P2;SDS_P1;SDS_P2;PMS_P1;PMS_P2;Temp;Humidity;BMP_temperature;BMP_pressure;BME280_temperature;BME280_humidity;BME280_pressure;Samples;Min_cycle;Max_cycle;Signal;HPM_P1;HPM_P2
2022/12/18 00:01:22;;;;;;;45.67;24.35;;;;;;;-5.15;66.59;97718.25;5038362;28;20530;-78
2022/12/18 00:03:51;;;;;;;46.57;25.37;;;;;;;-5.25;66.22;97716.94;5037014;28;20060;-78
2022/12/18 00:06:20;;;;;;;44.43;23.90;;;;;;;-5.34;66.32;97718.09;5036705;28;20053;-79
2022/12/18 00:08:47;;;;;;;44.47;24.77;;;;;;;-5.39;66.71;97725.91;5036803;28;20419;-78
2022/12/18 00:11:19;;;;;;;42.23;25.43;;;;;;;-5.43;66.68;97723.53;5036780;28;20557;-78
2022/12/18 00:13:47;;;;;;;44.97;24.23;;;;;;;-5.49;66.70;97728.81;5038270;28;20045;-78
2022/12/18 00:16:18;;;;;;;45.77;25.33;;;;;;;-5.56;66.49;97732.47;5037576;28;20566;-78
2022/12/18 00:18:45;;;;;;;45.87;24.60;;;;;;;-5.63;67.03;97734.41;5036014;28;20507;-78
2022/12/18 00:21:14;;;;;;;47.87;25.00;;;;;;;-5.68;66.82;97726.13;5036183;28;20052;-79
2022/12/18 00:23:44;;;;;;;45.30;24.73;;;;;;;-5.72;67.07;97719.50;5035707;28;20053;-78
2022/12/18 00:26:14;;;;;;;47.47;24.77;;;;;;;-5.74;67.31;97724.63;5037424;28;20103;-78
2022/12/18 00:28:44;;;;;;;43.67;24.20;;;;;;;-5.74;67.16;97728.88;5035478;28;20072;-78
2022/12/18 00:31:14;;;;;;;42.97;24.37;;;;;;;-5.75;67.01;97733.13;5035711;28;20053;-78
2022/12/18 00:33:42;;;;;;;47.00;24.60;;;;;;;-5.73;67.59;97730.53;5036485;28;20053;-78
2022/12/18 00:36:11;;;;;;;48.90;24.07;;;;;;;-5.74;67.22;97744.13;5035839;28;20107;-80
2022/12/18 00:38:39;;;;;;;43.03;22.77;;;;;;;-5.76;67.25;97745.88;5036723;28;20046;-77
2022/12/18 00:41:08;;;;;;;43.77;22.33;;;;;;;-5.78;67.30;97737.47;5035441;28;20046;-78
2022/12/18 00:43:35;;;;;;;40.73;22.63;;;;;;;-5.77;67.19;97739.13;5035576;28;20060;-77
2022/12/18 00:46:05;;;;;;;47.53;24.83;;;;;;;-5.80;67.51;97751.06;5035339;28;20076;-78
2022/12/18 00:48:33;;;;;;;46.57;24.23;;;;;;;-5.82;67.50;97745.19;5035416;28;20046;-78
2022/12/18 00:51:00;;;;;;;45.53;23.33;;;;;;;-5.83;67.02;97751.19;5035253;28;20049;-78
2022/12/18 00:53:28;;;;;;;43.07;22.23;;;;;;;-5.84;67.48;97746.13;5035389;28;20045;-77
2022/12/18 00:55:55;;;;;;;40.90;22.33;;;;;;;-5.83;67.23;97743.56;5036147;28;20049;-78
2022/12/18 00:58:23;;;;;;;43.17;21.63;;;;;;;-5.82;67.40;97741.84;5034726;28;20495;-78
2022/12/18 01:00:50;;;;;;;40.13;21.53;;;;;;;-5.81;67.35;97728.25;5035219;28;20067;-80
2022/12/18 01:03:19;;;;;;;38.87;21.07;;;;;;;-5.77;67.63;97739.13;5035163;28;20053;-78
2022/12/18 01:05:47;;;;;;;40.37;21.50;;;;;;;-5.77;67.38;97734.91;5034744;28;20060;-77
2022/12/18 01:08:14;;;;;;;43.93;22.23;;;;;;;-5.78;67.62;97722.22;5035112;28;20055;-80
2022/12/18 01:10:42;;;;;;;39.43;19.97;;;;;;;-5.78;67.56;97722.22;5033851;28;20066;-78
2022/12/18 01:13:10;;;;;;;34.43;19.43;;;;;;;-5.79;67.39;97726.50;5034814;28;20057;-78
2022/12/18 01:15:37;;;;;;;40.40;21.07;;;;;;;-5.82;67.49;97724.03;5034864;28;20049;-78
2022/12/18 01:18:05;;;;;;;39.57;21.27;;;;;;;-5.84;67.19;97725.81;5034378;28;20132;-77
2022/12/18 01:20:34;;;;;;;42.93;21.77;;;;;;;-5.86;67.27;97725.88;5034744;28;20486;-77
2022/12/18 01:23:01;;;;;;;38.30;20.23;;;;;;;-5.87;67.48;97728.47;5034485;28;20061;-78
2022/12/18 01:25:29;;;;;;;34.87;20.47;;;;;;;-5.89;67.57;97725.97;5035450;28;20049;-78
2022/12/18 01:27:56;;;;;;;37.73;20.47;;;;;;;-5.91;67.91;97734.53;5033928;28;20550;-78
2022/12/18 01:30:24;;;;;;;39.17;20.93;;;;;;;-5.92;67.63;97750.66;5034171;28;20521;-77
2022/12/18 01:32:51;;;;;;;38.80;20.27;;;;;;;-5.95;67.44;97754.16;5034383;28;20053;-78
2022/12/18 01:35:19;;;;;;;39.60;20.20;;;;;;;-6.00;67.60;97753.47;5035319;28;20045;-78
2022/12/18 01:37:48;;;;;;;39.40;21.43;;;;;;;-6.08;67.36;97756.28;5033396;28;20546;-77
2022/12/18 01:40:15;;;;;;;38.87;22.07;;;;;;;-6.15;67.08;97766.69;5033803;28;20050;-78
2022/12/18 01:42:43;;;;;;;42.43;21.77;;;;;;;-6.26;67.62;97761.97;5033885;28;20049;-78
2022/12/18 01:45:24;;;;;;;40.70;20.87;;;;;;;-6.37;67.91;97775.00;5033877;28;20115;-77
2022/12/18 01:47:54;;;;;;;38.37;21.60;;;;;;;-6.43;67.54;97777.72;5031222;28;20618;-78
2022/12/18 01:50:26;;;;;;;40.43;21.40;;;;;;;-6.58;67.85;97765.50;5033540;28;20495;-77
2022/12/18 01:52:57;;;;;;;44.00;21.23;;;;;;;-6.73;68.35;97766.81;5033514;28;20491;-78
2022/12/18 01:55:28;;;;;;;43.67;22.33;;;;;;;-6.81;68.69;97777.19;5033757;28;20057;-77
2022/12/18 01:57:59;;;;;;;42.47;21.83;;;;;;;-6.86;68.84;97787.47;5033141;28;20076;-77
2022/12/18 02:00:28;;;;;;;43.63;22.07;;;;;;;-6.92;68.97;97784.28;5033181;28;20054;-78
2022/12/18 02:02:56;;;;;;;41.57;22.80;;;;;;;-6.95;69.39;97776.75;5033456;28;20057;-77
2022/12/18 02:05:35;;;;;;;41.57;22.87;;;;;;;-6.95;69.53;97777.59;5033236;28;20535;-77
2022/12/18 02:08:13;;;;;;;45.83;22.13;;;;;;;-6.98;69.31;97769.25;5033057;28;20049;-77
2022/12/18 02:10:48;;;;;;;49.53;22.63;;;;;;;-7.03;69.62;97776.16;5033255;28;20049;-77
2022/12/18 02:13:21;;;;;;;50.07;24.17;;;;;;;-7.11;69.77;97782.25;5033144;28;20045;-78
2022/12/18 02:15:55;;;;;;;46.57;22.97;;;;;;;-7.13;69.58;97768.78;5034023;28;20053;-78
2022/12/18 02:18:27;;;;;;;48.77;23.90;;;;;;;-7.16;69.95;97763.00;5033181;28;20053;-80
2022/12/18 02:21:00;;;;;;;46.40;22.17;;;;;;;-7.17;70.27;97772.31;5033133;28;20053;-77
2022/12/18 02:23:47;;;;;;;47.70;24.50;;;;;;;-7.22;70.27;97769.06;5032818;28;20045;-77
2022/12/18 02:26:24;;;;;;;48.17;23.77;;;;;;;-7.26;70.22;97767.50;5033035;28;20049;-77
2022/12/18 02:28:57;;;;;;;51.70;23.87;;;;;;;-7.24;70.24;97765.75;5032495;28;20060;-77
2022/12/18 02:31:26;;;;;;;;;;;;;;;-7.21;70.91;97760.59;5033291;28;20056;-78
2022/12/18 02:33:59;;;;;;;47.50;22.37;;;;;;;-7.23;69.89;97756.47;5033160;28;19927;-77
2022/12/18 02:36:29;;;;;;;42.07;20.97;;;;;;;-7.29;69.96;97755.72;5033605;28;20049;-77
2022/12/18 02:38:58;;;;;;;40.23;20.80;;;;;;;-7.28;70.10;97759.09;5033386;28;20132;-78
2022/12/18 02:41:28;;;;;;;42.00;20.50;;;;;;;-7.30;69.99;97750.72;5033514;28;20057;-77
2022/12/18 02:43:58;;;;;;;42.80;21.27;;;;;;;-7.32;70.03;97767.69;5032582;28;20547;-78
2022/12/18 02:46:31;;;;;;;43.50;20.37;;;;;;;-7.35;69.79;97782.97;5032539;28;20065;-77
2022/12/18 02:49:06;;;;;;;43.20;21.15;;;;;;;-7.34;70.47;97785.47;5032501;28;20064;-78
2022/12/18 02:51:43;;;;;;;41.30;19.60;;;;;;;-7.35;70.23;97793.91;5033164;28;20053;-80
2022/12/18 02:54:24;;;;;;;35.13;18.23;;;;;;;-7.36;69.81;97786.38;5033165;28;20045;-78
2022/12/18 02:56:56;;;;;;;36.80;18.33;;;;;;;-7.38;69.50;97785.59;5032658;28;20064;-78
2022/12/18 02:59:33;;;;;;;37.63;20.25;;;;;;;-7.42;70.53;97789.09;5033008;28;20050;-77
2022/12/18 03:02:17;;;;;;;36.03;18.93;;;;;;;-7.44;70.39;97778.16;5032572;28;20454;-78
2022/12/18 03:04:49;;;;;;;35.97;16.53;;;;;;;-7.51;69.93;97778.31;5032256;28;20462;-77
2022/12/18 03:07:21;;;;;;;32.63;17.15;;;;;;;-7.54;70.39;97788.53;5032147;28;20051;-81
2022/12/18 03:09:52;;;;;;;35.70;16.60;;;;;;;-7.54;70.22;97797.84;5032064;28;20057;-77
2022/12/18 03:12:29;;;;;;;33.00;17.23;;;;;;;-7.58;71.05;97802.16;5046903;22;20057;-81
2022/12/18 03:15:01;;;;;;;40.20;18.27;;;;;;;-7.60;70.74;97791.22;5019812;28;20053;-80
2022/12/18 03:17:33;;;;;;;30.92;16.42;;;;;;;-7.59;70.90;97790.34;5019066;28;20042;-81
2022/12/18 03:20:05;;;;;;;35.00;16.53;;;;;;;-7.56;71.20;97795.34;5019134;28;20397;-80
2022/12/18 03:22:35;;;;;;;35.53;17.33;;;;;;;-7.56;71.36;97813.09;5019978;28;20381;-80
2022/12/18 03:25:06;;;;;;;37.33;17.27;;;;;;;-7.51;71.14;97811.25;5019262;28;20054;-80
2022/12/18 03:27:39;;;;;;;33.93;15.93;;;;;;;-7.44;71.50;97811.09;5019413;28;20089;-80
2022/12/18 03:30:12;;;;;;;35.20;17.23;;;;;;;-7.39;71.42;97817.72;5019054;28;20052;-80
2022/12/18 03:32:44;;;;;;;31.70;16.48;;;;;;;-7.36;70.96;97791.44;5019611;28;20485;-80
2022/12/18 03:35:14;;;;;;;37.33;19.20;;;;;;;-7.33;70.99;97791.34;5021823;28;20153;-80
2022/12/18 03:37:41;;;;;;;40.77;17.33;;;;;;;-7.31;70.98;97799.75;5023763;28;20049;-80
2022/12/18 03:40:10;;;;;;;37.67;17.67;;;;;;;-7.30;70.87;97786.22;5023414;28;20054;-80
2022/12/18 03:42:47;;;;;;;36.93;17.27;;;;;;;-7.32;71.37;97777.81;5022685;28;20049;-80
2022/12/18 03:45:24;;;;;;;44.03;18.33;;;;;;;-7.32;71.77;97772.75;5021859;28;20054;-80
2022/12/18 03:48:02;;;;;;;39.00;17.90;;;;;;;-7.31;71.64;97779.47;5019821;28;20046;-82
2022/12/18 03:50:38;;;;;;;36.27;17.80;;;;;;;-7.31;72.05;97777.75;5023163;28;20045;-82
2022/12/18 03:53:22;;;;;;;39.57;17.13;;;;;;;-7.31;72.11;97789.63;5022550;28;20596;-81
2022/12/18 03:55:51;;;;;;;41.87;17.30;;;;;;;-7.28;72.11;97784.44;5022506;28;20322;-81
2022/12/18 03:58:24;;;;;;;39.93;17.70;;;;;;;-7.28;72.11;97784.44;5021701;28;20049;-81
2022/12/18 04:00:56;;;;;;;35.90;16.07;;;;;;;-7.27;72.20;97786.13;5022836;28;20508;-81
2022/12/18 04:03:25;;;;;;;42.25;17.45;;;;;;;-7.25;72.34;97786.91;5021829;28;20045;-80
2022/12/18 04:05:56;;;;;;;40.07;18.80;;;;;;;-7.23;72.19;97777.56;5022869;28;20105;-83
2022/12/18 04:08:24;;;;;;;40.03;17.23;;;;;;;-7.22;72.69;97789.34;5021946;28;20110;-81
2022/12/18 04:10:52;;;;;;;39.40;19.33;;;;;;;-7.19;72.48;97790.97;5022543;28;20050;-80
2022/12/18 04:13:24;;;;;;;40.00;17.30;;;;;;;-7.20;72.77;97797.75;5021613;28;20421;-80
2022/12/18 04:15:52;;;;;;;36.88;16.50;;;;;;;-7.15;72.98;97795.94;5020978;28;20049;-81
2022/12/18 04:18:20;;;;;;;34.30;15.73;;;;;;;-7.11;72.52;97782.25;5021914;28;20050;-81
2022/12/18 04:20:47;;;;;;;39.53;18.93;;;;;;;-7.08;72.35;97786.44;5022231;28;20058;-80
2022/12/18 04:23:15;;;;;;;40.73;19.10;;;;;;;-7.07;72.69;97796.53;5021761;28;20504;-80
2022/12/18 04:25:43;;;;;;;38.03;16.70;;;;;;;-7.05;72.61;97802.38;5021682;28;20049;-81
2022/12/18 04:28:10;;;;;;;39.63;17.37;;;;;;;-7.03;72.37;97793.91;5022306;28;20042;-82
2022/12/18 04:30:39;;;;;;;37.23;16.80;;;;;;;-7.01;72.40;97787.09;5021731;28;20053;-82
2022/12/18 04:33:09;;;;;;;40.30;17.37;;;;;;;-6.97;72.74;97793.75;5021246;28;20053;-81
2022/12/18 04:35:37;;;;;;;36.57;18.20;;;;;;;-6.96;72.34;97795.41;5022522;28;20061;-80
2022/12/18 04:38:06;;;;;;;42.00;19.53;;;;;;;-6.93;72.77;97795.28;5022771;28;20054;-81
2022/12/18 04:40:35;;;;;;;37.47;16.83;;;;;;;-6.88;72.60;97796.00;5022832;28;20470;-81
2022/12/18 04:43:03;;;;;;;36.87;17.20;;;;;;;-6.84;72.43;97802.66;5023110;28;20050;-80
2022/12/18 04:45:30;;;;;;;38.03;17.33;;;;;;;-6.85;72.18;97795.91;5024523;28;20049;-80
2022/12/18 04:47:59;;;;;;;40.03;17.87;;;;;;;-6.88;72.43;97804.44;5021536;28;20054;-82
2022/12/18 04:50:27;;;;;;;43.83;18.17;;;;;;;-6.87;72.39;97807.81;5022692;28;20060;-81
2022/12/18 04:52:55;;;;;;;35.63;16.80;;;;;;;-6.87;72.81;97816.25;5021343;28;20145;-81
2022/12/18 04:55:26;;;;;;;42.47;18.77;;;;;;;-6.86;72.45;97807.78;5022837;28;20054;-81
2022/12/18 04:57:54;;;;;;;38.00;17.40;;;;;;;-6.86;72.61;97812.84;5022185;28;20057;-80
2022/12/18 05:00:22;;;;;;;40.03;16.77;;;;;;;-6.82;72.83;97818.66;5023830;28;20049;-80
2022/12/18 05:02:50;;;;;;;41.73;17.83;;;;;;;-6.80;72.47;97816.88;5023666;28;20056;-80
2022/12/18 05:05:19;;;;;;;46.10;19.87;;;;;;;-6.79;73.12;97810.97;5022664;28;20081;-81
2022/12/18 05:07:47;;;;;;;48.53;18.13;;;;;;;-6.79;72.85;97818.56;5021997;28;20054;-81
2022/12/18 05:10:15;;;;;;;42.93;19.40;;;;;;;-6.77;72.74;97826.97;5022752;28;20046;-81
2022/12/18 05:15:24;;;;;;;39.37;17.87;;;;;;;-6.77;72.80;97811.75;5022253;28;20057;-80
2022/12/18 05:17:51;;;;;;;37.80;18.27;;;;;;;-6.81;72.93;97820.31;5022140;28;20053;-81
2022/12/18 05:20:20;;;;;;;41.53;18.73;;;;;;;-6.82;73.34;97812.75;5022960;28;20133;-80
2022/12/18 05:22:48;;;;;;;45.87;19.37;;;;;;;-6.89;73.12;97815.47;5022110;28;20056;-82
2022/12/18 05:25:16;;;;;;;38.00;17.27;;;;;;;-6.90;73.03;97815.50;5021825;28;20223;-80
2022/12/18 05:27:43;;;;;;;39.37;19.37;;;;;;;-6.91;73.63;97823.97;5021765;28;20503;-80
2022/12/18 05:30:12;;;;;;;41.73;18.73;;;;;;;-6.92;73.61;97818.09;5021661;28;20054;-81
2022/12/18 05:32:41;;;;;;;38.40;17.23;;;;;;;-6.92;73.50;97822.34;5021723;28;20056;-80
2022/12/18 05:35:10;;;;;;;40.60;18.60;;;;;;;-6.96;73.70;97820.75;5022046;28;20049;-83
2022/12/18 05:37:39;;;;;;;44.40;19.27;;;;;;;-6.97;73.90;97822.47;5021589;28;20080;-80
2022/12/18 05:40:11;;;;;;;37.88;18.60;;;;;;;-6.98;73.85;97820.78;5021804;28;20050;-80
2022/12/18 05:42:39;;;;;;;36.33;18.37;;;;;;;-6.95;73.95;97817.34;5021216;28;20050;-81
2022/12/18 05:45:08;;;;;;;41.40;17.93;;;;;;;-6.92;73.88;97823.16;5021262;28;20050;-83
2022/12/18 05:47:35;;;;;;;42.47;17.83;;;;;;;-6.92;73.74;97813.00;5021385;28;20061;-80
2022/12/18 05:50:03;;;;;;;35.33;15.60;;;;;;;-6.89;73.86;97817.16;5021445;28;20053;-80
2022/12/18 05:52:31;;;;;;;36.93;15.80;;;;;;;-6.83;73.53;97817.00;5021250;28;20512;-81
2022/12/18 05:55:00;;;;;;;39.73;18.13;;;;;;;-6.82;72.95;97808.53;5021132;28;20542;-81
2022/12/18 05:57:28;;;;;;;42.07;17.63;;;;;;;-6.81;72.89;97810.16;5020037;28;20046;-79
2022/12/18 05:59:55;;;;;;;41.40;18.07;;;;;;;-6.84;73.05;97820.41;5019768;28;20049;-82
2022/12/18 06:02:23;;;;;;;38.80;17.70;;;;;;;-6.87;73.11;97813.69;5019824;28;20579;-81
2022/12/18 06:04:51;;;;;;;39.80;16.50;;;;;;;-6.86;73.07;97824.69;5019681;28;20073;-80
2022/12/18 06:07:18;;;;;;;44.83;18.43;;;;;;;-6.85;73.44;97826.34;5021046;28;20050;-81
2022/12/18 06:09:46;;;;;;;41.07;16.70;;;;;;;-6.81;73.19;97827.09;5020215;28;20046;-81
2022/12/18 06:12:14;;;;;;;44.77;17.87;;;;;;;-6.80;72.98;97829.56;5020443;28;20046;-82
2022/12/18 06:14:42;;;;;;;38.30;16.27;;;;;;;-6.77;73.13;97837.13;5020411;28;20052;-84
2022/12/18 06:17:10;;;;;;;42.30;18.53;;;;;;;-6.76;73.11;97836.22;5019610;28;20048;-83
2022/12/18 06:19:37;;;;;;;44.13;19.03;;;;;;;-6.74;72.64;97829.41;5020907;28;20057;-81
2022/12/18 06:22:05;;;;;;;45.27;21.43;;;;;;;-6.72;73.24;97835.25;5021232;28;20053;-81
2022/12/18 06:24:32;;;;;;;44.23;19.83;;;;;;;-6.70;72.86;97833.50;5020769;28;20112;-81
2022/12/18 06:27:00;;;;;;;40.03;19.30;;;;;;;-6.67;72.74;97843.59;5021556;28;20049;-81
2022/12/18 06:29:29;;;;;;;42.40;19.33;;;;;;;-6.70;72.66;97843.66;5021323;28;20077;-80
2022/12/18 06:31:57;;;;;;;42.43;17.30;;;;;;;-6.68;72.76;97839.38;5020620;28;20496;-80
2022/12/18 06:34:24;;;;;;;40.70;18.67;;;;;;;-6.70;72.71;97848.75;5020454;28;20068;-81
2022/12/18 06:36:52;;;;;;;48.40;21.47;;;;;;;-6.66;73.11;97849.50;5020647;28;20065;-81
2022/12/18 06:39:19;;;;;;;42.00;20.40;;;;;;;-6.67;72.49;97843.59;5020628;28;20042;-80
2022/12/18 06:41:47;;;;;;;53.87;22.40;;;;;;;-6.68;72.78;97839.38;5020580;28;20060;-80
2022/12/18 06:44:15;;;;;;;43.67;20.30;;;;;;;-6.67;73.32;97845.28;5020075;28;20569;-81
2022/12/18 06:46:43;;;;;;;46.90;20.93;;;;;;;-6.62;73.19;97835.84;5021029;28;20057;-80
2022/12/18 06:49:11;;;;;;;54.27;22.10;;;;;;;-6.57;73.26;97839.06;5020206;28;20046;-81
2022/12/18 06:51:40;;;;;;;47.87;20.70;;;;;;;-6.52;73.41;97842.28;5020260;28;20125;-81
2022/12/18 06:54:07;;;;;;;50.83;22.47;;;;;;;-6.51;72.79;97843.16;5020136;28;20064;-80
2022/12/18 06:56:35;;;;;;;52.20;21.90;;;;;;;-6.48;73.42;97828.63;5019892;28;20068;-79
2022/12/18 06:59:03;;;;;;;56.10;22.40;;;;;;;-6.45;72.83;97840.41;5021505;28;20049;-81
2022/12/18 07:01:30;;;;;;;55.17;22.83;;;;;;;-6.47;73.19;97840.47;5021295;28;20045;-80
2022/12/18 07:04:00;;;;;;;50.47;21.87;;;;;;;-6.45;73.06;97853.09;5021567;28;20050;-80
2022/12/18 07:06:27;;;;;;;52.50;23.53;;;;;;;-6.46;73.16;97846.38;5021747;28;20439;-79
2022/12/18 07:08:55;;;;;;;57.50;22.87;;;;;;;-6.44;73.23;97857.31;5020988;28;20058;-80
2022/12/18 07:11:24;;;;;;;56.07;24.17;;;;;;;-6.42;72.84;97865.72;5022293;28;20100;-80
2022/12/18 07:13:53;;;;;;;52.93;22.03;;;;;;;-6.42;72.99;97863.16;5021360;28;20056;-80
2022/12/18 07:16:21;;;;;;;50.03;22.47;;;;;;;-6.41;73.19;97882.59;5021289;28;20056;-79
2022/12/18 07:18:52;;;;;;;47.03;20.93;;;;;;;-6.39;73.33;97874.94;5021463;28;20096;-80
2022/12/18 07:21:22;;;;;;;55.87;23.73;;;;;;;-6.42;73.21;97873.31;5020265;28;20056;-80
2022/12/18 07:23:49;;;;;;;60.07;24.07;;;;;;;-6.45;73.07;97879.31;5019731;28;20496;-80
2022/12/18 07:26:19;;;;;;;57.37;23.57;;;;;;;-6.48;73.73;97876.88;5005967;28;20046;-79
2022/12/18 07:28:47;;;;;;;52.83;23.20;;;;;;;-6.47;73.69;97877.69;5006142;28;20052;-80
2022/12/18 07:31:17;;;;;;;59.10;23.63;;;;;;;-6.45;73.32;97878.47;5020614;28;20559;-81
2022/12/18 07:33:45;;;;;;;55.27;24.03;;;;;;;-6.43;73.33;97891.97;5021527;28;20050;-81
2022/12/18 07:36:13;;;;;;;52.27;22.37;;;;;;;-6.41;73.96;97890.22;5020945;28;20496;-80
2022/12/18 07:38:42;;;;;;;57.37;23.87;;;;;;;-6.38;73.61;97901.97;5020826;28;20042;-80
2022/12/18 07:41:12;;;;;;;52.90;22.60;;;;;;;-6.36;73.64;97892.59;5017034;28;20046;-78
2022/12/18 07:43:41;;;;;;;65.17;24.50;;;;;;;-6.34;73.74;97896.78;5023852;28;20054;-82
2022/12/18 07:46:13;;;;;;;51.80;23.10;;;;;;;-6.33;73.32;97895.06;5008558;28;20061;-80
2022/12/18 07:48:44;;;;;;;55.17;23.47;;;;;;;-6.32;73.47;97909.41;5008279;28;20476;-84
2022/12/18 07:51:17;;;;;;;53.80;24.40;;;;;;;-6.33;73.83;97906.06;5020304;28;20042;-83
2022/12/18 07:53:46;;;;;;;53.63;23.40;;;;;;;-6.33;73.89;97912.84;5021978;28;20050;-83
2022/12/18 07:56:19;;;;;;;51.83;21.50;;;;;;;-6.31;73.75;97911.91;5021280;28;20053;-83
2022/12/18 07:58:57;;;;;;;54.50;23.10;;;;;;;-6.31;73.48;97908.56;5020285;28;20046;-82
2022/12/18 08:01:25;;;;;;;59.03;24.17;;;;;;;-6.31;73.51;97898.41;5020403;28;20050;-84
2022/12/18 08:03:52;;;;;;;62.73;25.83;;;;;;;-6.29;73.61;97899.19;5021131;28;20530;-81
2022/12/18 08:06:20;;;;;;;59.20;24.50;;;;;;;-6.30;73.61;97893.25;5000555;28;20151;-83
2022/12/18 08:08:53;;;;;;;48.97;22.77;;;;;;;-6.29;73.96;97894.94;5015044;28;20053;-83
2022/12/18 08:11:21;;;;;;;61.03;25.10;;;;;;;-6.27;74.30;97893.19;5016750;28;20046;-82
2022/12/18 08:13:49;;;;;;;53.87;24.40;;;;;;;-6.25;74.12;97899.03;5017047;28;20049;-81
2022/12/18 08:16:17;;;;;;;59.10;23.20;;;;;;;-6.25;73.79;97896.50;5017681;28;20094;-80
2022/12/18 08:18:45;;;;;;;52.30;23.20;;;;;;;-6.24;74.17;97894.78;5020642;28;20401;-83
2022/12/18 08:21:15;;;;;;;48.37;21.70;;;;;;;-6.23;74.27;97899.84;5023792;28;20045;-82
2022/12/18 08:23:44;;;;;;;54.10;24.90;;;;;;;-6.20;74.14;97887.91;5011794;28;20050;-82
2022/12/18 08:26:14;;;;;;;51.33;22.93;;;;;;;-6.17;73.80;97890.34;5002850;28;20046;-82
2022/12/18 08:28:42;;;;;;;52.30;23.23;;;;;;;-6.13;73.96;97884.31;5011849;28;20053;-81
2022/12/18 08:31:11;;;;;;;49.63;21.77;;;;;;;-6.09;73.99;97890.97;5019997;28;20064;-81
2022/12/18 08:33:39;;;;;;;52.77;23.87;;;;;;;-6.07;74.10;97871.41;5022616;28;20077;-82
2022/12/18 08:36:10;;;;;;;55.45;23.80;;;;;;;-6.02;73.80;97877.19;5023873;28;20484;-81
2022/12/18 08:38:37;;;;;;;47.93;22.47;;;;;;;-5.98;73.98;97886.38;5022940;28;20128;-82
2022/12/18 08:41:08;;;;;;;51.87;23.67;;;;;;;-5.93;73.89;97881.94;5023147;28;20057;-81
2022/12/18 08:46:24;;;;;;;50.03;20.83;;;;;;;-5.85;73.89;97887.63;5022886;28;20057;-82
2022/12/18 08:48:53;;;;;;;50.60;22.50;;;;;;;-5.82;73.65;97891.75;5021813;28;20500;-82
2022/12/18 08:51:21;;;;;;;49.20;21.87;;;;;;;-5.80;73.34;97907.78;5023118;28;20086;-82
2022/12/18 08:53:48;;;;;;;44.67;19.33;;;;;;;-5.74;73.64;97910.16;5022156;28;20042;-79
2022/12/18 08:56:16;;;;;;;46.13;18.97;;;;;;;-5.74;73.46;97917.78;5021313;28;20049;-80
2022/12/18 08:58:45;;;;;;;46.47;18.67;;;;;;;-5.74;73.38;97906.78;5010586;28;20050;-80
2022/12/18 09:01:14;;;;;;;45.07;21.03;;;;;;;-5.75;73.24;97907.66;5021400;28;20042;-79
2022/12/18 09:03:42;;;;;;;47.10;21.30;;;;;;;-5.74;73.66;97906.78;5020273;28;20061;-81
2022/12/18 09:06:15;;;;;;;45.53;21.13;;;;;;;-5.71;73.66;97902.41;5015527;28;20080;-81
2022/12/18 09:08:43;;;;;;;42.08;20.88;;;;;;;-5.67;73.32;97905.69;5018791;28;20045;-79
2022/12/18 09:11:16;;;;;;;47.90;21.00;;;;;;;-5.65;73.37;97901.41;5016824;28;20046;-79
2022/12/18 09:13:45;;;;;;;41.47;19.45;;;;;;;-5.61;72.99;97897.88;5035933;22;20065;-77
2022/12/18 09:16:12;;;;;;;42.50;19.75;;;;;;;-5.61;72.96;97890.25;5015065;28;20049;-77
2022/12/18 09:18:40;;;;;;;37.83;16.93;;;;;;;-5.62;72.83;97888.56;5014848;28;20085;-77
2022/12/18 09:21:10;;;;;;;36.53;17.43;;;;;;;-5.65;73.18;97876.81;5014585;28;20060;-76
2022/12/18 09:23:38;;;;;;;36.00;17.40;;;;;;;-5.66;73.05;97874.34;5014344;28;20042;-77
2022/12/18 09:26:05;;;;;;;41.30;18.90;;;;;;;-5.66;73.05;97881.97;5014675;28;20052;-77
2022/12/18 09:28:33;;;;;;;38.30;19.03;;;;;;;-5.65;73.11;97891.22;5014656;28;20054;-77
2022/12/18 09:31:07;;;;;;;39.40;18.57;;;;;;;-5.64;73.03;97878.47;5014489;28;20049;-77
2022/12/18 09:33:35;;;;;;;42.20;18.93;;;;;;;-5.63;72.83;97880.13;5013995;28;20064;-77
2022/12/18 09:36:04;;;;;;;39.80;17.13;;;;;;;-5.59;73.02;97875.78;5014358;28;20054;-77
2022/12/18 09:38:32;;;;;;;37.60;16.57;;;;;;;-5.52;72.89;97881.50;5016457;28;20053;-77
2022/12/18 09:41:03;;;;;;;40.67;18.63;;;;;;;-5.45;73.00;97862.59;5031665;28;20065;-77
2022/12/18 09:43:38;;;;;;;45.77;19.93;;;;;;;-5.39;73.00;97862.41;5032078;28;20056;-77
2022/12/18 09:46:11;;;;;;;37.07;17.27;;;;;;;-5.34;72.82;97865.59;5019811;28;20046;-77
2022/12/18 09:48:43;;;;;;;40.13;18.20;;;;;;;-5.30;72.74;97856.16;5014374;28;20133;-77
2022/12/18 09:51:16;;;;;;;43.20;18.80;;;;;;;-5.29;72.75;97847.63;5018898;28;20077;-77
2022/12/18 09:53:48;;;;;;;35.03;17.88;;;;;;;-5.27;72.45;97868.78;5035513;28;20097;-77
2022/12/18 09:56:22;;;;;;;40.28;19.50;;;;;;;-5.21;72.59;97877.03;5024531;28;20110;-78
2022/12/18 09:58:56;;;;;;;43.73;18.27;;;;;;;-5.13;72.38;97873.41;5008847;28;20049;-77
2022/12/18 10:01:27;;;;;;;37.40;16.67;;;;;;;-5.12;71.89;97875.88;5013914;28;20064;-74
2022/12/18 10:04:09;;;;;;;37.17;19.73;;;;;;;-5.10;72.03;97879.19;5013811;28;20056;-77
2022/12/18 10:06:44;;;;;;;37.87;20.27;;;;;;;-5.03;72.11;97880.66;5013327;28;20503;-77
2022/12/18 10:09:20;;;;;;;37.33;18.33;;;;;;;-4.98;72.43;97888.94;5013334;28;20065;-76
2022/12/18 10:11:54;;;;;;;42.50;19.83;;;;;;;-4.87;72.04;97887.75;5024552;28;20030;-77
2022/12/18 10:14:31;;;;;;;43.73;20.57;;;;;;;-4.78;71.91;97882.31;5031213;28;20050;-76
2022/12/18 10:17:06;;;;;;;37.03;18.43;;;;;;;-4.70;71.63;97882.03;5005155;28;20046;-76
2022/12/18 10:19:48;;;;;;;40.80;18.67;;;;;;;-4.61;71.67;97881.72;4995120;28;20054;-77
2022/12/18 10:22:26;;;;;;;39.47;19.75;;;;;;;-4.53;70.84;97883.97;5014627;28;20077;-77
2022/12/18 10:25:00;;;;;;;38.23;18.60;;;;;;;-4.48;71.36;97876.97;5013718;28;20162;-77
2022/12/18 10:27:29;;;;;;;45.63;20.58;;;;;;;-4.41;70.92;97879.25;5013238;28;20527;-77
2022/12/18 10:29:58;;;;;;;41.33;18.83;;;;;;;-4.39;70.99;97869.84;5013482;28;20487;-77
2022/12/18 10:32:28;;;;;;;45.22;21.65;;;;;;;-4.34;71.06;97874.75;5013635;28;20053;-77
2022/12/18 10:34:58;;;;;;;42.47;20.77;;;;;;;-4.25;70.85;97874.41;5013143;28;20042;-77
2022/12/18 10:37:29;;;;;;;39.83;19.52;;;;;;;-4.22;70.62;97879.41;5012677;28;20054;-76
2022/12/18 10:40:10;;;;;;;42.20;18.00;;;;;;;-4.17;70.56;97872.41;5022005;28;20042;-76
2022/12/18 10:42:43;;;;;;;40.50;20.57;;;;;;;-4.11;70.57;97866.25;5012741;28;20046;-75
2022/12/18 10:45:14;;;;;;;45.77;20.53;;;;;;;-4.07;70.47;97869.47;5013077;28;20060;-76
2022/12/18 10:47:46;;;;;;;38.65;18.90;;;;;;;-4.00;70.29;97868.34;5013340;28;20091;-77
2022/12/18 10:50:24;;;;;;;39.63;19.43;;;;;;;-3.98;69.83;97871.66;5012943;28;20049;-77
2022/12/18 10:53:00;;;;;;;38.25;18.15;;;;;;;-4.00;70.11;97881.09;5013013;28;20046;-77
2022/12/18 10:55:33;;;;;;;37.20;18.60;;;;;;;-3.97;70.01;97878.44;5012607;28;20512;-76
2022/12/18 10:58:18;;;;;;;40.08;18.63;;;;;;;-3.91;69.45;97877.34;5012920;28;20050;-77
2022/12/18 11:01:06;;;;;;;39.28;18.20;;;;;;;-3.87;69.69;97874.66;5012230;28;20571;-77
2022/12/18 11:03:36;;;;;;;46.67;23.17;;;;;;;-3.76;70.00;97877.59;5012766;28;20053;-76
2022/12/18 11:06:07;;;;;;;41.17;18.55;;;;;;;-3.64;69.71;97875.44;5012893;28;20058;-76
2022/12/18 11:08:35;;;;;;;38.22;17.70;;;;;;;-3.60;69.33;97874.41;5012664;28;20068;-77
2022/12/18 11:11:03;;;;;;;32.65;16.52;;;;;;;-3.57;69.30;97876.84;5011823;28;20079;-76
2022/12/18 11:13:32;;;;;;;39.33;18.53;;;;;;;-3.55;68.98;97869.94;5012365;28;20046;-76
2022/12/18 11:16:00;;;;;;;36.10;17.85;;;;;;;-3.58;68.95;97880.28;5012310;28;20054;-77
2022/12/18 11:18:30;;;;;;;40.60;18.77;;;;;;;-3.54;69.21;97879.28;5012390;28;20075;-76
2022/12/18 11:21:06;;;;;;;40.50;19.52;;;;;;;-3.46;69.20;97872.13;5012315;28;20053;-77
2022/12/18 11:23:35;;;;;;;38.08;18.15;;;;;;;-3.37;68.89;97873.47;5012271;28;20053;-77
2022/12/18 11:26:05;;;;;;;38.45;18.67;;;;;;;-3.29;68.92;97875.69;5012449;28;20504;-76
2022/12/18 11:28:40;;;;;;;36.75;17.70;;;;;;;-3.19;68.84;97871.84;5011813;28;20526;-77
2022/12/18 11:31:24;;;;;;;40.92;19.67;;;;;;;-3.09;68.31;97877.41;5012786;28;20077;-77
2022/12/18 11:34:04;;;;;;;36.47;18.52;;;;;;;-3.01;68.47;97876.19;5011753;28;20046;-77
2022/12/18 11:36:53;;;;;;;33.93;16.70;;;;;;;-2.99;68.25;97873.56;5012573;28;20069;-76